sensor_id;sensor_type;location;lat;lon;timestamp;P1;durP1;ratioP1;P2;durP2;ratioP2
24901;SDS011;31328;51.402;0.016;2023-02-11T00:00:38;10.17;;;6.27;;
24901;SDS011;31328;51.402;0.016;2023-02-11T00:03:05;10.10;;;6.13;;
24901;SDS011;31328;51.402;0.016;2023-02-11T00:05:32;8.80;;;6.37;;
24901;SDS011;31328;51.402;0.016;2023-02-11T00:07:58;9.67;;;6.00;;
24901;SDS011;31328;51.402;0.016;2023-02-11T00:10:25;10.37;;;6.00;;
24901;SDS011;31328;51.402;0.016;2023-02-11T00:12:51;11.60;;;6.57;;
24901;SDS011;31328;51.402;0.016;2023-02-11T00:15:17;12.40;;;7.77;;
24901;SDS011;31328;51.402;0.016;2023-02-11T00:17:45;10.07;;;5.77;;
24901;SDS011;31328;51.402;0.016;2023-02-11T00:20:12;10.43;;;6.57;;
24901;SDS011;31328;51.402;0.016;2023-02-11T00:22:38;11.00;;;6.70;;
24901;SDS011;31328;51.402;0.016;2023-02-11T00:25:04;9.50;;;6.90;;
24901;SDS011;31328;51.402;0.016;2023-02-11T00:27:31;10.73;;;6.63;;
24901;SDS011;31328;51.402;0.016;2023-02-11T00:29:58;10.70;;;6.40;;
24901;SDS011;31328;51.402;0.016;2023-02-11T00:32:30;10.30;;;6.03;;
24901;SDS011;31328;51.402;0.016;2023-02-11T00:34:56;9.70;;;6.30;;
24901;SDS011;31328;51.402;0.016;2023-02-11T00:37:22;10.17;;;6.97;;
24901;SDS011;31328;51.402;0.016;2023-02-11T00:39:49;8.73;;;6.90;;
24901;SDS011;31328;51.402;0.016;2023-02-11T00:42:15;12.70;;;7.03;;
24901;SDS011;31328;51.402;0.016;2023-02-11T00:44:44;11.93;;;6.70;;
24901;SDS011;31328;51.402;0.016;2023-02-11T00:47:10;9.40;;;6.67;;
24901;SDS011;31328;51.402;0.016;2023-02-11T00:49:37;11.63;;;6.70;;
24901;SDS011;31328;51.402;0.016;2023-02-11T00:52:05;9.37;;;6.80;;
24901;SDS011;31328;51.402;0.016;2023-02-11T00:54:33;10.07;;;6.67;;
24901;SDS011;31328;51.402;0.016;2023-02-11T00:57:00;10.37;;;6.50;;
24901;SDS011;31328;51.402;0.016;2023-02-11T00:59:26;12.13;;;7.63;;
24901;SDS011;31328;51.402;0.016;2023-02-11T01:01:53;10.27;;;6.73;;
24901;SDS011;31328;51.402;0.016;2023-02-11T01:04:19;11.97;;;6.33;;
24901;SDS011;31328;51.402;0.016;2023-02-11T01:06:45;9.00;;;6.47;;
24901;SDS011;31328;51.402;0.016;2023-02-11T01:09:12;10.90;;;6.37;;
24901;SDS011;31328;51.402;0.016;2023-02-11T01:11:38;9.43;;;6.97;;
24901;SDS011;31328;51.402;0.016;2023-02-11T01:14:04;9.07;;;6.23;;
24901;SDS011;31328;51.402;0.016;2023-02-11T01:16:31;10.93;;;6.77;;
24901;SDS011;31328;51.402;0.016;2023-02-11T01:18:57;8.63;;;6.27;;
24901;SDS011;31328;51.402;0.016;2023-02-11T01:21:24;10.00;;;6.63;;
24901;SDS011;31328;51.402;0.016;2023-02-11T01:23:51;9.07;;;6.60;;
24901;SDS011;31328;51.402;0.016;2023-02-11T01:26:17;12.93;;;7.97;;
24901;SDS011;31328;51.402;0.016;2023-02-11T01:28:44;11.57;;;7.13;;
24901;SDS011;31328;51.402;0.016;2023-02-11T01:31:10;13.33;;;7.87;;
24901;SDS011;31328;51.402;0.016;2023-02-11T01:33:37;11.83;;;7.43;;
24901;SDS011;31328;51.402;0.016;2023-02-11T01:36:05;10.53;;;7.10;;
24901;SDS011;31328;51.402;0.016;2023-02-11T01:38:32;11.80;;;8.60;;
24901;SDS011;31328;51.402;0.016;2023-02-11T01:41:00;13.03;;;7.80;;
24901;SDS011;31328;51.402;0.016;2023-02-11T01:43:30;11.10;;;6.60;;
24901;SDS011;31328;51.402;0.016;2023-02-11T01:46:47;13.47;;;7.13;;
24901;SDS011;31328;51.402;0.016;2023-02-11T01:48:57;13.03;;;8.43;;
24901;SDS011;31328;51.402;0.016;2023-02-11T01:52:13;14.57;;;9.33;;
24901;SDS011;31328;51.402;0.016;2023-02-11T01:54:36;10.53;;;7.30;;
24901;SDS011;31328;51.402;0.016;2023-02-11T01:57:26;12.83;;;7.80;;
24901;SDS011;31328;51.402;0.016;2023-02-11T01:59:57;10.43;;;6.53;;
24901;SDS011;31328;51.402;0.016;2023-02-11T02:05:41;12.07;;;7.63;;
24901;SDS011;31328;51.402;0.016;2023-02-11T02:09:01;13.23;;;8.10;;
24901;SDS011;31328;51.402;0.016;2023-02-11T02:11:10;11.97;;;7.70;;
24901;SDS011;31328;51.402;0.016;2023-02-11T02:13:36;12.77;;;8.37;;
24901;SDS011;31328;51.402;0.016;2023-02-11T02:16:04;12.07;;;7.80;;
24901;SDS011;31328;51.402;0.016;2023-02-11T02:18:55;13.07;;;7.90;;
24901;SDS011;31328;51.402;0.016;2023-02-11T02:27:04;12.10;;;7.70;;
24901;SDS011;31328;51.402;0.016;2023-02-11T02:32:38;13.90;;;8.05;;
24901;SDS011;31328;51.402;0.016;2023-02-11T02:43:44;13.10;;;8.13;;
24901;SDS011;31328;51.402;0.016;2023-02-11T02:46:24;13.05;;;8.02;;
24901;SDS011;31328;51.402;0.016;2023-02-11T02:48:53;12.13;;;7.60;;
24901;SDS011;31328;51.402;0.016;2023-02-11T03:07:21;14.23;;;9.20;;
24901;SDS011;31328;51.402;0.016;2023-02-11T03:10:01;13.23;;;8.63;;
24901;SDS011;31328;51.402;0.016;2023-02-11T03:12:38;12.47;;;8.10;;
24901;SDS011;31328;51.402;0.016;2023-02-11T03:15:06;11.87;;;7.77;;
24901;SDS011;31328;51.402;0.016;2023-02-11T03:17:34;13.93;;;7.90;;
24901;SDS011;31328;51.402;0.016;2023-02-11T03:20:04;14.33;;;8.27;;
24901;SDS011;31328;51.402;0.016;2023-02-11T03:22:39;12.00;;;8.47;;
24901;SDS011;31328;51.402;0.016;2023-02-11T03:25:09;15.40;;;9.83;;
24901;SDS011;31328;51.402;0.016;2023-02-11T03:27:40;14.07;;;8.03;;
24901;SDS011;31328;51.402;0.016;2023-02-11T03:30:17;14.93;;;8.30;;
24901;SDS011;31328;51.402;0.016;2023-02-11T03:32:52;14.90;;;9.40;;
24901;SDS011;31328;51.402;0.016;2023-02-11T03:35:30;12.35;;;7.50;;
24901;SDS011;31328;51.402;0.016;2023-02-11T03:38:04;14.77;;;7.93;;
24901;SDS011;31328;51.402;0.016;2023-02-11T03:40:41;14.53;;;8.87;;
24901;SDS011;31328;51.402;0.016;2023-02-11T03:45:45;13.93;;;9.23;;
24901;SDS011;31328;51.402;0.016;2023-02-11T03:48:16;13.87;;;8.43;;
24901;SDS011;31328;51.402;0.016;2023-02-11T03:50:50;14.20;;;8.70;;
24901;SDS011;31328;51.402;0.016;2023-02-11T03:53:19;16.07;;;8.30;;
24901;SDS011;31328;51.402;0.016;2023-02-11T03:55:46;14.43;;;8.20;;
24901;SDS011;31328;51.402;0.016;2023-02-11T03:58:15;17.07;;;8.33;;
24901;SDS011;31328;51.402;0.016;2023-02-11T04:00:42;15.63;;;9.40;;
24901;SDS011;31328;51.402;0.016;2023-02-11T04:03:08;13.10;;;9.10;;
24901;SDS011;31328;51.402;0.016;2023-02-11T04:05:35;15.27;;;8.67;;
24901;SDS011;31328;51.402;0.016;2023-02-11T04:08:02;15.57;;;8.80;;
24901;SDS011;31328;51.402;0.016;2023-02-11T04:10:28;15.47;;;9.20;;
24901;SDS011;31328;51.402;0.016;2023-02-11T04:12:55;14.23;;;8.73;;
24901;SDS011;31328;51.402;0.016;2023-02-11T04:15:22;15.93;;;8.83;;
24901;SDS011;31328;51.402;0.016;2023-02-11T04:17:49;14.30;;;9.30;;
24901;SDS011;31328;51.402;0.016;2023-02-11T04:20:15;16.70;;;8.63;;
24901;SDS011;31328;51.402;0.016;2023-02-11T04:22:41;14.47;;;8.27;;
24901;SDS011;31328;51.402;0.016;2023-02-11T04:25:08;15.00;;;8.60;;
24901;SDS011;31328;51.402;0.016;2023-02-11T04:27:34;14.23;;;8.63;;
24901;SDS011;31328;51.402;0.016;2023-02-11T04:30:02;14.93;;;8.77;;
24901;SDS011;31328;51.402;0.016;2023-02-11T04:32:30;15.00;;;8.53;;
24901;SDS011;31328;51.402;0.016;2023-02-11T04:34:56;13.23;;;8.27;;
24901;SDS011;31328;51.402;0.016;2023-02-11T04:37:23;14.50;;;8.50;;
24901;SDS011;31328;51.402;0.016;2023-02-11T04:39:49;18.00;;;9.20;;
24901;SDS011;31328;51.402;0.016;2023-02-11T04:42:15;15.97;;;8.73;;
24901;SDS011;31328;51.402;0.016;2023-02-11T04:44:41;15.13;;;9.33;;
24901;SDS011;31328;51.402;0.016;2023-02-11T04:47:08;14.00;;;8.27;;
24901;SDS011;31328;51.402;0.016;2023-02-11T04:49:34;15.60;;;8.77;;
24901;SDS011;31328;51.402;0.016;2023-02-11T04:52:00;14.47;;;7.63;;
24901;SDS011;31328;51.402;0.016;2023-02-11T04:54:27;13.70;;;8.00;;
24901;SDS011;31328;51.402;0.016;2023-02-11T04:56:53;14.77;;;8.13;;
24901;SDS011;31328;51.402;0.016;2023-02-11T04:59:19;14.40;;;8.20;;
24901;SDS011;31328;51.402;0.016;2023-02-11T05:01:45;14.30;;;7.70;;
24901;SDS011;31328;51.402;0.016;2023-02-11T05:04:12;13.63;;;7.70;;
24901;SDS011;31328;51.402;0.016;2023-02-11T05:06:38;14.00;;;8.10;;
24901;SDS011;31328;51.402;0.016;2023-02-11T05:09:04;12.53;;;7.07;;
24901;SDS011;31328;51.402;0.016;2023-02-11T05:11:31;15.13;;;8.67;;
24901;SDS011;31328;51.402;0.016;2023-02-11T05:13:57;14.80;;;7.60;;
24901;SDS011;31328;51.402;0.016;2023-02-11T05:16:23;12.37;;;7.17;;
24901;SDS011;31328;51.402;0.016;2023-02-11T05:18:50;10.40;;;6.97;;
24901;SDS011;31328;51.402;0.016;2023-02-11T05:21:17;12.30;;;7.63;;
24901;SDS011;31328;51.402;0.016;2023-02-11T05:23:44;14.03;;;7.80;;
24901;SDS011;31328;51.402;0.016;2023-02-11T05:26:11;15.70;;;8.13;;
24901;SDS011;31328;51.402;0.016;2023-02-11T05:28:38;12.13;;;6.73;;
24901;SDS011;31328;51.402;0.016;2023-02-11T05:31:05;12.50;;;7.30;;
24901;SDS011;31328;51.402;0.016;2023-02-11T05:33:32;12.57;;;6.83;;
24901;SDS011;31328;51.402;0.016;2023-02-11T05:35:59;10.90;;;6.73;;
24901;SDS011;31328;51.402;0.016;2023-02-11T05:38:27;12.07;;;6.83;;
24901;SDS011;31328;51.402;0.016;2023-02-11T05:40:53;10.70;;;6.93;;
24901;SDS011;31328;51.402;0.016;2023-02-11T05:43:20;9.47;;;5.50;;
24901;SDS011;31328;51.402;0.016;2023-02-11T05:45:46;12.40;;;6.23;;
24901;SDS011;31328;51.402;0.016;2023-02-11T05:48:13;8.53;;;5.53;;
24901;SDS011;31328;51.402;0.016;2023-02-11T05:50:39;11.63;;;6.80;;
24901;SDS011;31328;51.402;0.016;2023-02-11T05:53:06;10.70;;;6.03;;
24901;SDS011;31328;51.402;0.016;2023-02-11T05:55:32;10.20;;;5.67;;
24901;SDS011;31328;51.402;0.016;2023-02-11T05:57:59;12.80;;;6.67;;
24901;SDS011;31328;51.402;0.016;2023-02-11T06:00:25;11.37;;;6.33;;
24901;SDS011;31328;51.402;0.016;2023-02-11T06:02:52;12.97;;;6.10;;
24901;SDS011;31328;51.402;0.016;2023-02-11T06:05:18;9.43;;;5.60;;
24901;SDS011;31328;51.402;0.016;2023-02-11T06:07:45;8.93;;;5.70;;
24901;SDS011;31328;51.402;0.016;2023-02-11T06:10:11;10.37;;;5.77;;
24901;SDS011;31328;51.402;0.016;2023-02-11T06:12:38;10.87;;;5.50;;
24901;SDS011;31328;51.402;0.016;2023-02-11T06:15:04;11.43;;;5.63;;
24901;SDS011;31328;51.402;0.016;2023-02-11T06:17:31;10.43;;;5.87;;
24901;SDS011;31328;51.402;0.016;2023-02-11T06:19:59;8.60;;;5.17;;
24901;SDS011;31328;51.402;0.016;2023-02-11T06:22:27;10.83;;;5.37;;
24901;SDS011;31328;51.402;0.016;2023-02-11T06:24:53;11.00;;;5.80;;
24901;SDS011;31328;51.402;0.016;2023-02-11T06:27:20;9.40;;;5.47;;
24901;SDS011;31328;51.402;0.016;2023-02-11T06:29:47;10.33;;;5.40;;
24901;SDS011;31328;51.402;0.016;2023-02-11T06:32:13;10.40;;;5.13;;
24901;SDS011;31328;51.402;0.016;2023-02-11T06:34:39;8.43;;;4.63;;
24901;SDS011;31328;51.402;0.016;2023-02-11T06:37:07;8.17;;;4.90;;
24901;SDS011;31328;51.402;0.016;2023-02-11T06:39:33;10.80;;;5.60;;
24901;SDS011;31328;51.402;0.016;2023-02-11T06:41:59;9.40;;;5.03;;
24901;SDS011;31328;51.402;0.016;2023-02-11T06:44:26;7.83;;;5.33;;
24901;SDS011;31328;51.402;0.016;2023-02-11T06:46:52;9.07;;;5.20;;
24901;SDS011;31328;51.402;0.016;2023-02-11T06:49:18;10.50;;;4.87;;
24901;SDS011;31328;51.402;0.016;2023-02-11T06:51:45;11.40;;;4.63;;
24901;SDS011;31328;51.402;0.016;2023-02-11T06:54:11;7.30;;;4.43;;
24901;SDS011;31328;51.402;0.016;2023-02-11T06:56:38;10.07;;;5.07;;
24901;SDS011;31328;51.402;0.016;2023-02-11T06:59:05;10.40;;;5.00;;
24901;SDS011;31328;51.402;0.016;2023-02-11T07:01:32;9.20;;;5.03;;
24901;SDS011;31328;51.402;0.016;2023-02-11T07:03:58;8.37;;;5.10;;
24901;SDS011;31328;51.402;0.016;2023-02-11T07:06:24;11.00;;;5.30;;
24901;SDS011;31328;51.402;0.016;2023-02-11T07:08:53;9.63;;;4.60;;
24901;SDS011;31328;51.402;0.016;2023-02-11T07:11:21;7.87;;;4.43;;
24901;SDS011;31328;51.402;0.016;2023-02-11T07:13:50;8.80;;;4.10;;
24901;SDS011;31328;51.402;0.016;2023-02-11T07:16:18;8.20;;;4.90;;
24901;SDS011;31328;51.402;0.016;2023-02-11T07:18:45;8.03;;;4.23;;
24901;SDS011;31328;51.402;0.016;2023-02-11T07:21:13;7.10;;;4.33;;
24901;SDS011;31328;51.402;0.016;2023-02-11T07:23:42;10.90;;;4.93;;
24901;SDS011;31328;51.402;0.016;2023-02-11T07:26:09;7.57;;;4.23;;
24901;SDS011;31328;51.402;0.016;2023-02-11T07:28:39;8.93;;;5.20;;
24901;SDS011;31328;51.402;0.016;2023-02-11T07:31:13;9.33;;;4.37;;
24901;SDS011;31328;51.402;0.016;2023-02-11T07:33:44;8.27;;;4.10;;
24901;SDS011;31328;51.402;0.016;2023-02-11T07:36:11;8.73;;;5.43;;
24901;SDS011;31328;51.402;0.016;2023-02-11T07:38:39;10.80;;;5.10;;
24901;SDS011;31328;51.402;0.016;2023-02-11T07:41:06;8.17;;;4.37;;
24901;SDS011;31328;51.402;0.016;2023-02-11T07:43:35;10.60;;;4.70;;
24901;SDS011;31328;51.402;0.016;2023-02-11T07:46:06;7.30;;;4.07;;
24901;SDS011;31328;51.402;0.016;2023-02-11T07:48:37;6.82;;;4.15;;
24901;SDS011;31328;51.402;0.016;2023-02-11T07:53:40;8.70;;;4.10;;
24901;SDS011;31328;51.402;0.016;2023-02-11T07:56:08;8.07;;;4.27;;
24901;SDS011;31328;51.402;0.016;2023-02-11T07:58:35;9.73;;;4.30;;
24901;SDS011;31328;51.402;0.016;2023-02-11T08:01:03;8.17;;;4.17;;
24901;SDS011;31328;51.402;0.016;2023-02-11T08:03:30;7.63;;;4.07;;
24901;SDS011;31328;51.402;0.016;2023-02-11T08:05:57;9.47;;;3.93;;
24901;SDS011;31328;51.402;0.016;2023-02-11T08:08:27;6.30;;;4.10;;
24901;SDS011;31328;51.402;0.016;2023-02-11T08:10:53;7.70;;;3.47;;
24901;SDS011;31328;51.402;0.016;2023-02-11T08:13:20;6.83;;;3.67;;
24901;SDS011;31328;51.402;0.016;2023-02-11T08:15:46;7.33;;;3.73;;
24901;SDS011;31328;51.402;0.016;2023-02-11T08:18:12;5.83;;;3.37;;
24901;SDS011;31328;51.402;0.016;2023-02-11T08:20:39;8.03;;;3.40;;
24901;SDS011;31328;51.402;0.016;2023-02-11T08:23:06;7.57;;;3.20;;
24901;SDS011;31328;51.402;0.016;2023-02-11T08:25:32;5.80;;;3.80;;
24901;SDS011;31328;51.402;0.016;2023-02-11T08:27:59;8.60;;;3.53;;
24901;SDS011;31328;51.402;0.016;2023-02-11T08:30:25;8.53;;;3.70;;
24901;SDS011;31328;51.402;0.016;2023-02-11T08:32:51;7.10;;;3.20;;
24901;SDS011;31328;51.402;0.016;2023-02-11T08:35:18;5.63;;;2.73;;
24901;SDS011;31328;51.402;0.016;2023-02-11T08:37:44;6.13;;;2.67;;
24901;SDS011;31328;51.402;0.016;2023-02-11T08:40:10;5.37;;;2.60;;
24901;SDS011;31328;51.402;0.016;2023-02-11T08:42:37;3.50;;;2.63;;
24901;SDS011;31328;51.402;0.016;2023-02-11T08:45:03;4.83;;;1.90;;
24901;SDS011;31328;51.402;0.016;2023-02-11T08:47:30;3.57;;;2.13;;
24901;SDS011;31328;51.402;0.016;2023-02-11T08:49:56;5.13;;;2.47;;
24901;SDS011;31328;51.402;0.016;2023-02-11T08:52:22;3.80;;;2.17;;
24901;SDS011;31328;51.402;0.016;2023-02-11T08:54:49;3.80;;;2.07;;
24901;SDS011;31328;51.402;0.016;2023-02-11T08:57:15;4.13;;;1.53;;
24901;SDS011;31328;51.402;0.016;2023-02-11T08:59:41;3.23;;;1.93;;
24901;SDS011;31328;51.402;0.016;2023-02-11T09:02:10;4.60;;;2.57;;
24901;SDS011;31328;51.402;0.016;2023-02-11T09:04:37;2.67;;;1.67;;
24901;SDS011;31328;51.402;0.016;2023-02-11T09:07:04;5.47;;;2.07;;
24901;SDS011;31328;51.402;0.016;2023-02-11T09:09:31;2.33;;;1.53;;
24901;SDS011;31328;51.402;0.016;2023-02-11T09:11:58;2.53;;;1.33;;
24901;SDS011;31328;51.402;0.016;2023-02-11T09:14:25;4.20;;;1.70;;
24901;SDS011;31328;51.402;0.016;2023-02-11T09:16:52;3.33;;;1.70;;
24901;SDS011;31328;51.402;0.016;2023-02-11T09:19:19;3.43;;;1.57;;
24901;SDS011;31328;51.402;0.016;2023-02-11T09:21:45;2.53;;;1.50;;
24901;SDS011;31328;51.402;0.016;2023-02-11T09:24:12;3.10;;;1.20;;
24901;SDS011;31328;51.402;0.016;2023-02-11T09:26:40;4.40;;;2.10;;
24901;SDS011;31328;51.402;0.016;2023-02-11T09:29:07;5.47;;;1.70;;
24901;SDS011;31328;51.402;0.016;2023-02-11T09:31:34;2.07;;;1.40;;
24901;SDS011;31328;51.402;0.016;2023-02-11T09:34:02;2.50;;;1.50;;
24901;SDS011;31328;51.402;0.016;2023-02-11T09:36:31;3.50;;;1.60;;
24901;SDS011;31328;51.402;0.016;2023-02-11T09:39:00;3.27;;;1.73;;
24901;SDS011;31328;51.402;0.016;2023-02-11T09:44:22;5.67;;;1.57;;
24901;SDS011;31328;51.402;0.016;2023-02-11T09:47:10;2.23;;;1.63;;
24901;SDS011;31328;51.402;0.016;2023-02-11T09:49:57;6.03;;;1.58;;
24901;SDS011;31328;51.402;0.016;2023-02-11T09:55:04;3.37;;;1.60;;
24901;SDS011;31328;51.402;0.016;2023-02-11T09:57:41;2.73;;;1.47;;
24901;SDS011;31328;51.402;0.016;2023-02-11T10:00:19;4.30;;;1.67;;
24901;SDS011;31328;51.402;0.016;2023-02-11T10:06:27;4.80;;;1.93;;
24901;SDS011;31328;51.402;0.016;2023-02-11T10:20:07;4.47;;;1.50;;
24901;SDS011;31328;51.402;0.016;2023-02-11T10:22:43;4.43;;;1.70;;
24901;SDS011;31328;51.402;0.016;2023-02-11T10:25:20;2.93;;;1.80;;
24901;SDS011;31328;51.402;0.016;2023-02-11T10:27:46;4.50;;;2.03;;
24901;SDS011;31328;51.402;0.016;2023-02-11T10:35:52;4.57;;;1.50;;
24901;SDS011;31328;51.402;0.016;2023-02-11T10:38:19;3.33;;;1.80;;
24901;SDS011;31328;51.402;0.016;2023-02-11T10:40:45;3.93;;;1.50;;
24901;SDS011;31328;51.402;0.016;2023-02-11T10:43:15;5.63;;;1.70;;
24901;SDS011;31328;51.402;0.016;2023-02-11T10:45:44;4.87;;;2.17;;
24901;SDS011;31328;51.402;0.016;2023-02-11T10:51:16;4.67;;;3.10;;
24901;SDS011;31328;51.402;0.016;2023-02-11T10:53:49;7.90;;;2.97;;
24901;SDS011;31328;51.402;0.016;2023-02-11T10:56:25;4.90;;;2.60;;
24901;SDS011;31328;51.402;0.016;2023-02-11T10:59:14;2.27;;;1.80;;
24901;SDS011;31328;51.402;0.016;2023-02-11T11:01:56;2.57;;;1.87;;
24901;SDS011;31328;51.402;0.016;2023-02-11T11:07:19;3.73;;;1.60;;
24901;SDS011;31328;51.402;0.016;2023-02-11T11:09:56;4.43;;;1.80;;
24901;SDS011;31328;51.402;0.016;2023-02-11T11:12:36;4.00;;;1.87;;
24901;SDS011;31328;51.402;0.016;2023-02-11T11:15:14;5.13;;;1.50;;
24901;SDS011;31328;51.402;0.016;2023-02-11T11:17:44;2.67;;;1.53;;
24901;SDS011;31328;51.402;0.016;2023-02-11T11:25:59;2.93;;;1.50;;
24901;SDS011;31328;51.402;0.016;2023-02-11T11:29:08;2.80;;;1.73;;
24901;SDS011;31328;51.402;0.016;2023-02-11T11:31:33;2.43;;;1.30;;
24901;SDS011;31328;51.402;0.016;2023-02-11T11:34:26;2.90;;;1.70;;
24901;SDS011;31328;51.402;0.016;2023-02-11T11:36:58;2.83;;;1.37;;
24901;SDS011;31328;51.402;0.016;2023-02-11T11:39:34;3.37;;;1.30;;
24901;SDS011;31328;51.402;0.016;2023-02-11T11:42:02;2.03;;;1.20;;
24901;SDS011;31328;51.402;0.016;2023-02-11T11:44:31;2.47;;;1.23;;
24901;SDS011;31328;51.402;0.016;2023-02-11T11:47:06;3.13;;;1.63;;
24901;SDS011;31328;51.402;0.016;2023-02-11T11:49:38;2.57;;;1.50;;
24901;SDS011;31328;51.402;0.016;2023-02-11T11:57:47;2.40;;;1.40;;
24901;SDS011;31328;51.402;0.016;2023-02-11T12:00:18;3.90;;;1.73;;
24901;SDS011;31328;51.402;0.016;2023-02-11T12:03:01;3.03;;;1.60;;
24901;SDS011;31328;51.402;0.016;2023-02-11T12:06:01;3.73;;;1.60;;
24901;SDS011;31328;51.402;0.016;2023-02-11T12:08:28;2.17;;;1.70;;
24901;SDS011;31328;51.402;0.016;2023-02-11T12:31:08;3.15;;;1.50;;
24901;SDS011;31328;51.402;0.016;2023-02-11T12:34:07;1.97;;;1.60;;
24901;SDS011;31328;51.402;0.016;2023-02-11T12:36:56;3.40;;;1.20;;
24901;SDS011;31328;51.402;0.016;2023-02-11T12:45:40;5.20;;;1.37;;
24901;SDS011;31328;51.402;0.016;2023-02-11T13:02:04;3.80;;;1.50;;
24901;SDS011;31328;51.402;0.016;2023-02-11T13:04:41;3.07;;;1.80;;
24901;SDS011;31328;51.402;0.016;2023-02-11T13:07:24;2.87;;;1.60;;
24901;SDS011;31328;51.402;0.016;2023-02-11T13:09:58;3.23;;;1.90;;
24901;SDS011;31328;51.402;0.016;2023-02-11T13:12:44;4.40;;;1.70;;
24901;SDS011;31328;51.402;0.016;2023-02-11T13:15:31;3.03;;;1.57;;
24901;SDS011;31328;51.402;0.016;2023-02-11T13:20:56;4.38;;;2.00;;
24901;SDS011;31328;51.402;0.016;2023-02-11T13:23:38;5.87;;;1.90;;
24901;SDS011;31328;51.402;0.016;2023-02-11T13:29:22;2.30;;;1.47;;
24901;SDS011;31328;51.402;0.016;2023-02-11T13:32:08;3.93;;;1.83;;
24901;SDS011;31328;51.402;0.016;2023-02-11T13:40:04;2.97;;;2.03;;
24901;SDS011;31328;51.402;0.016;2023-02-11T13:42:48;3.40;;;1.70;;
24901;SDS011;31328;51.402;0.016;2023-02-11T13:45:21;4.27;;;1.80;;
24901;SDS011;31328;51.402;0.016;2023-02-11T13:47:59;4.60;;;2.10;;
24901;SDS011;31328;51.402;0.016;2023-02-11T13:50:30;4.60;;;2.07;;
24901;SDS011;31328;51.402;0.016;2023-02-11T13:53:01;2.73;;;1.70;;
24901;SDS011;31328;51.402;0.016;2023-02-11T13:55:29;4.73;;;1.67;;
24901;SDS011;31328;51.402;0.016;2023-02-11T14:17:30;3.87;;;2.20;;
24901;SDS011;31328;51.402;0.016;2023-02-11T14:20:00;3.67;;;1.80;;
24901;SDS011;31328;51.402;0.016;2023-02-11T14:22:29;5.73;;;1.90;;
24901;SDS011;31328;51.402;0.016;2023-02-11T14:25:15;3.10;;;1.80;;
24901;SDS011;31328;51.402;0.016;2023-02-11T14:27:53;4.63;;;3.17;;
24901;SDS011;31328;51.402;0.016;2023-02-11T14:33:06;2.50;;;1.80;;
24901;SDS011;31328;51.402;0.016;2023-02-11T14:36:17;5.43;;;1.63;;
24901;SDS011;31328;51.402;0.016;2023-02-11T14:41:46;4.40;;;1.77;;
24901;SDS011;31328;51.402;0.016;2023-02-11T14:44:19;6.40;;;2.40;;
24901;SDS011;31328;51.402;0.016;2023-02-11T14:46:50;4.45;;;1.80;;
24901;SDS011;31328;51.402;0.016;2023-02-11T14:49:35;4.47;;;2.03;;
24901;SDS011;31328;51.402;0.016;2023-02-11T14:52:37;4.17;;;1.70;;
24901;SDS011;31328;51.402;0.016;2023-02-11T14:55:11;6.38;;;2.03;;
24901;SDS011;31328;51.402;0.016;2023-02-11T14:58:07;3.20;;;1.83;;
24901;SDS011;31328;51.402;0.016;2023-02-11T15:00:58;4.10;;;2.20;;
24901;SDS011;31328;51.402;0.016;2023-02-11T15:03:40;3.90;;;1.73;;
24901;SDS011;31328;51.402;0.016;2023-02-11T15:06:17;6.10;;;2.20;;
24901;SDS011;31328;51.402;0.016;2023-02-11T15:08:51;3.10;;;2.23;;
24901;SDS011;31328;51.402;0.016;2023-02-11T15:11:19;4.43;;;2.70;;
24901;SDS011;31328;51.402;0.016;2023-02-11T15:13:47;4.63;;;3.23;;
24901;SDS011;31328;51.402;0.016;2023-02-11T15:16:16;3.70;;;2.80;;
24901;SDS011;31328;51.402;0.016;2023-02-11T15:18:48;4.13;;;2.77;;
24901;SDS011;31328;51.402;0.016;2023-02-11T15:21:23;5.43;;;2.70;;
24901;SDS011;31328;51.402;0.016;2023-02-11T15:23:55;4.20;;;2.77;;
24901;SDS011;31328;51.402;0.016;2023-02-11T15:26:27;6.90;;;3.00;;
24901;SDS011;31328;51.402;0.016;2023-02-11T15:28:54;5.83;;;2.40;;
24901;SDS011;31328;51.402;0.016;2023-02-11T15:31:21;3.33;;;2.23;;
24901;SDS011;31328;51.402;0.016;2023-02-11T15:33:50;3.97;;;2.87;;
24901;SDS011;31328;51.402;0.016;2023-02-11T15:36:18;5.20;;;2.87;;
24901;SDS011;31328;51.402;0.016;2023-02-11T15:41:52;5.00;;;2.93;;
24901;SDS011;31328;51.402;0.016;2023-02-11T15:44:28;4.67;;;2.77;;
24901;SDS011;31328;51.402;0.016;2023-02-11T15:46:56;4.57;;;3.20;;
24901;SDS011;31328;51.402;0.016;2023-02-11T15:49:24;8.30;;;3.20;;
24901;SDS011;31328;51.402;0.016;2023-02-11T15:51:51;4.83;;;3.00;;
24901;SDS011;31328;51.402;0.016;2023-02-11T15:54:21;4.30;;;2.80;;
24901;SDS011;31328;51.402;0.016;2023-02-11T15:56:51;5.57;;;2.73;;
24901;SDS011;31328;51.402;0.016;2023-02-11T16:02:20;6.30;;;2.90;;
24901;SDS011;31328;51.402;0.016;2023-02-11T16:05:01;5.93;;;3.97;;
24901;SDS011;31328;51.402;0.016;2023-02-11T16:07:36;4.30;;;2.53;;
24901;SDS011;31328;51.402;0.016;2023-02-11T16:15:55;6.57;;;2.67;;
24901;SDS011;31328;51.402;0.016;2023-02-11T16:18:28;5.20;;;2.70;;
24901;SDS011;31328;51.402;0.016;2023-02-11T16:20:58;4.50;;;2.47;;
24901;SDS011;31328;51.402;0.016;2023-02-11T16:23:35;5.60;;;2.83;;
24901;SDS011;31328;51.402;0.016;2023-02-11T16:28:52;5.20;;;2.67;;
24901;SDS011;31328;51.402;0.016;2023-02-11T16:34:00;3.40;;;2.13;;
24901;SDS011;31328;51.402;0.016;2023-02-11T16:36:26;4.03;;;2.60;;
24901;SDS011;31328;51.402;0.016;2023-02-11T16:38:52;4.50;;;2.60;;
24901;SDS011;31328;51.402;0.016;2023-02-11T16:41:19;3.70;;;2.67;;
24901;SDS011;31328;51.402;0.016;2023-02-11T16:43:45;3.27;;;2.80;;
24901;SDS011;31328;51.402;0.016;2023-02-11T16:46:14;6.77;;;3.77;;
24901;SDS011;31328;51.402;0.016;2023-02-11T16:48:41;4.50;;;2.90;;
24901;SDS011;31328;51.402;0.016;2023-02-11T16:51:09;4.90;;;3.00;;
24901;SDS011;31328;51.402;0.016;2023-02-11T16:53:36;5.53;;;3.33;;
24901;SDS011;31328;51.402;0.016;2023-02-11T16:56:02;3.60;;;2.63;;
24901;SDS011;31328;51.402;0.016;2023-02-11T16:58:29;8.43;;;4.20;;
24901;SDS011;31328;51.402;0.016;2023-02-11T17:00:55;4.27;;;3.27;;
24901;SDS011;31328;51.402;0.016;2023-02-11T17:03:23;4.93;;;3.07;;
24901;SDS011;31328;51.402;0.016;2023-02-11T17:05:51;7.23;;;3.20;;
24901;SDS011;31328;51.402;0.016;2023-02-11T17:08:18;6.80;;;3.60;;
24901;SDS011;31328;51.402;0.016;2023-02-11T17:10:44;4.83;;;3.83;;
24901;SDS011;31328;51.402;0.016;2023-02-11T17:13:10;6.23;;;3.43;;
24901;SDS011;31328;51.402;0.016;2023-02-11T17:15:37;4.93;;;3.57;;
24901;SDS011;31328;51.402;0.016;2023-02-11T17:18:03;6.30;;;4.13;;
24901;SDS011;31328;51.402;0.016;2023-02-11T17:20:30;5.93;;;3.50;;
24901;SDS011;31328;51.402;0.016;2023-02-11T17:22:56;6.57;;;3.70;;
24901;SDS011;31328;51.402;0.016;2023-02-11T17:25:22;5.17;;;3.80;;
24901;SDS011;31328;51.402;0.016;2023-02-11T17:27:49;6.17;;;3.73;;
24901;SDS011;31328;51.402;0.016;2023-02-11T17:30:15;6.00;;;3.60;;
24901;SDS011;31328;51.402;0.016;2023-02-11T17:32:42;4.97;;;3.60;;
24901;SDS011;31328;51.402;0.016;2023-02-11T17:35:08;6.13;;;4.40;;
24901;SDS011;31328;51.402;0.016;2023-02-11T17:37:35;6.20;;;4.27;;
24901;SDS011;31328;51.402;0.016;2023-02-11T17:40:01;4.30;;;3.53;;
24901;SDS011;31328;51.402;0.016;2023-02-11T17:42:28;7.13;;;4.33;;
24901;SDS011;31328;51.402;0.016;2023-02-11T17:44:55;5.60;;;4.57;;
24901;SDS011;31328;51.402;0.016;2023-02-11T17:47:22;6.13;;;3.50;;
24901;SDS011;31328;51.402;0.016;2023-02-11T17:49:48;7.77;;;4.57;;
24901;SDS011;31328;51.402;0.016;2023-02-11T17:52:15;6.27;;;4.70;;
24901;SDS011;31328;51.402;0.016;2023-02-11T17:54:42;6.10;;;4.63;;
24901;SDS011;31328;51.402;0.016;2023-02-11T17:57:09;8.77;;;4.37;;
24901;SDS011;31328;51.402;0.016;2023-02-11T17:59:37;7.93;;;5.40;;